Time;durP1;ratioP1;P1;durP2;ratioP2;P2;SDS_P1;SDS_P2;PMS_P1;PMS_P2;Temp;Humidity;BMP_temperature;BMP_pressure;BME280_temperature;BME280_humidity;BME280_pressure;Samples;Min_cycle;Max_cycle;Signal;HPM_P1;HPM_P2
2024/03/30 00:00:55;;;;;;;19.23;14.35;;;10.00;99.90;;;;;;4973871;28;20109;-55
2024/03/30 00:03:20;;;;;;;18.65;14.15;;;10.00;99.90;;;;;;4973841;28;20030;-53
2024/03/30 00:05:46;;;;;;;21.92;13.65;;;10.00;99.90;;;;;;4973728;28;20082;-57
2024/03/30 00:08:13;;;;;;;17.20;13.25;;;9.90;99.90;;;;;;4972733;28;20023;-56
2024/03/30 00:10:40;;;;;;;22.58;14.43;;;9.90;99.90;;;;;;4955994;28;20023;-51
2024/03/30 00:13:09;;;;;;;15.05;12.93;;;9.90;99.90;;;;;;4973562;28;20389;-56
2024/03/30 00:15:34;;;;;;;15.38;12.80;;;9.80;99.90;;;;;;4956271;28;20031;-53
2024/03/30 00:18:00;;;;;;;17.85;13.73;;;9.90;99.90;;;;;;4973388;28;20104;-55
2024/03/30 00:20:29;;;;;;;19.92;14.57;;;9.90;99.90;;;;;;4973411;28;20168;-51
2024/03/30 00:22:54;;;;;;;17.30;13.93;;;9.90;99.90;;;;;;4956439;28;20488;-55
2024/03/30 00:25:21;;;;;;;20.95;12.55;;;10.00;99.90;;;;;;4956397;28;20154;-55
2024/03/30 00:27:46;;;;;;;16.98;13.85;;;9.90;99.90;;;;;;4955480;28;20030;-52
2024/03/30 00:30:12;;;;;;;17.60;13.00;;;9.90;99.90;;;;;;4973704;28;20027;-57
2024/03/30 00:32:38;;;;;;;17.42;12.82;;;9.90;99.90;;;;;;4974048;28;20070;-57
2024/03/30 00:35:04;;;;;;;17.83;12.80;;;9.90;99.90;;;;;;4974622;28;20065;-58
2024/03/30 00:37:30;;;;;;;17.85;12.23;;;9.90;99.90;;;;;;4974378;28;20026;-55
2024/03/30 00:39:56;;;;;;;22.90;13.00;;;9.90;99.90;;;;;;4973374;28;20033;-56
2024/03/30 00:42:21;;;;;;;23.55;14.23;;;9.90;99.90;;;;;;4993792;23;20047;-55
2024/03/30 00:44:47;;;;;;;17.85;11.45;;;9.80;99.90;;;;;;4955924;28;20065;-46
2024/03/30 00:47:12;;;;;;;15.30;11.88;;;9.90;99.90;;;;;;4973086;28;20209;-55
2024/03/30 00:49:38;;;;;;;14.32;10.57;;;10.00;99.90;;;;;;4973450;28;20593;-55
2024/03/30 00:52:04;;;;;;;14.13;11.23;;;10.00;99.90;;;;;;4973024;28;20039;-58
2024/03/30 00:54:29;;;;;;;15.15;11.68;;;10.10;99.90;;;;;;4973094;28;20031;-56
2024/03/30 00:56:55;;;;;;;13.70;10.70;;;10.10;99.90;;;;;;4955516;28;20122;-54
2024/03/30 00:59:21;;;;;;;14.85;10.18;;;10.20;99.90;;;;;;4955644;28;20123;-54
2024/03/30 01:01:47;;;;;;;13.32;10.18;;;10.20;99.90;;;;;;4973002;28;20030;-55
2024/03/30 01:04:13;;;;;;;15.38;12.10;;;10.20;99.90;;;;;;4955631;28;20027;-54
2024/03/30 01:06:38;;;;;;;13.88;10.85;;;10.30;99.90;;;;;;4972932;28;20398;-55
2024/03/30 01:09:04;;;;;;;19.50;12.50;;;10.30;99.90;;;;;;4972973;28;20102;-51
2024/03/30 01:11:30;;;;;;;16.58;11.48;;;10.30;99.90;;;;;;4973011;28;20034;-55
2024/03/30 01:13:55;;;;;;;17.15;13.40;;;10.30;99.90;;;;;;4973169;28;20054;-55
2024/03/30 01:16:21;;;;;;;16.90;12.38;;;10.40;99.90;;;;;;4973599;28;20592;-51
2024/03/30 01:18:47;;;;;;;19.25;12.65;;;10.30;99.90;;;;;;4973090;28;20433;-51
2024/03/30 01:21:13;;;;;;;16.95;12.07;;;10.20;99.90;;;;;;4955625;28;20034;-51
2024/03/30 01:23:39;;;;;;;20.20;13.75;;;10.20;99.90;;;;;;4973112;28;20391;-56
2024/03/30 01:26:07;;;;;;;15.68;12.57;;;10.10;99.90;;;;;;4973087;28;20047;-58
2024/03/30 01:28:33;;;;;;;18.65;13.55;;;10.10;99.90;;;;;;4972683;28;20023;-54
2024/03/30 01:30:58;;;;;;;19.38;12.77;;;10.00;99.90;;;;;;4972912;28;20053;-56
2024/03/30 01:33:24;;;;;;;19.92;12.65;;;9.90;99.90;;;;;;4973013;28;20062;-56
2024/03/30 01:35:50;;;;;;;24.80;14.38;;;9.90;99.90;;;;;;4973276;28;20034;-50
2024/03/30 01:38:15;;;;;;;17.33;12.23;;;9.90;99.90;;;;;;4972966;28;20035;-56
2024/03/30 01:40:41;;;;;;;15.43;11.85;;;9.90;99.90;;;;;;4976508;28;20094;-57
2024/03/30 01:43:06;;;;;;;15.40;11.27;;;9.90;99.90;;;;;;4976697;28;20033;-52
2024/03/30 01:45:36;;;;;;;14.52;11.50;;;9.90;99.90;;;;;;4976859;28;20027;-53
2024/03/30 01:48:04;;;;;;;15.18;11.75;;;9.80;99.90;;;;;;4959082;28;20026;-52
2024/03/30 01:50:31;;;;;;;16.55;11.27;;;9.80;99.90;;;;;;4976510;28;20383;-55
2024/03/30 01:52:59;;;;;;;15.00;10.30;;;9.80;99.90;;;;;;4976654;28;20397;-53
2024/03/30 01:55:25;;;;;;;16.08;11.52;;;9.80;99.90;;;;;;4959338;28;20062;-54
2024/03/30 01:57:51;;;;;;;14.50;12.38;;;9.80;99.90;;;;;;4976150;28;20035;-54
2024/03/30 02:00:17;;;;;;;16.00;13.18;;;9.70;99.90;;;;;;4976401;28;20111;-54
2024/03/30 02:02:44;;;;;;;17.27;13.70;;;9.80;99.90;;;;;;4976362;28;20049;-54
2024/03/30 02:05:10;;;;;;;17.38;12.98;;;9.70;99.90;;;;;;4976354;28;20026;-55
2024/03/30 02:07:36;;;;;;;18.98;12.95;;;9.80;99.90;;;;;;4975995;28;20050;-55
2024/03/30 02:10:04;;;;;;;19.85;12.30;;;9.80;99.90;;;;;;4958380;28;20019;-53
2024/03/30 02:12:30;;;;;;;18.15;13.40;;;9.70;99.90;;;;;;4976160;28;20042;-58
2024/03/30 02:14:56;;;;;;;20.00;13.27;;;9.70;99.90;;;;;;4976432;28;20457;-56
2024/03/30 02:17:21;;;;;;;16.90;13.07;;;9.70;99.90;;;;;;4976088;28;20114;-56
2024/03/30 02:19:47;;;;;;;18.13;13.07;;;9.60;99.90;;;;;;4958686;28;20105;-53
2024/03/30 02:22:18;;;;;;;15.95;12.63;;;9.60;99.90;;;;;;4975979;28;20066;-55
2024/03/30 02:24:45;;;;;;;22.55;14.35;;;9.60;99.90;;;;;;4976035;28;20047;-56
2024/03/30 02:27:10;;;;;;;20.92;14.35;;;9.60;99.90;;;;;;4958483;28;20029;-56
2024/03/30 02:29:38;;;;;;;23.45;14.80;;;9.60;99.90;;;;;;4975712;28;20031;-59
2024/03/30 02:32:05;;;;;;;22.02;13.93;;;9.60;99.90;;;;;;4975822;28;20401;-56
2024/03/30 02:34:31;;;;;;;23.98;14.68;;;9.60;99.90;;;;;;4975703;28;20055;-54
2024/03/30 02:36:57;;;;;;;17.85;13.90;;;9.50;99.90;;;;;;4975227;28;20601;-52
2024/03/30 02:39:22;;;;;;;19.88;14.15;;;9.50;99.90;;;;;;4975856;28;20128;-56
2024/03/30 02:41:48;;;;;;;22.98;14.77;;;9.50;99.90;;;;;;4958139;28;20035;-55
2024/03/30 02:44:13;;;;;;;20.50;14.77;;;9.50;99.90;;;;;;4975458;28;20030;-56
2024/03/30 02:46:39;;;;;;;21.98;15.65;;;9.50;99.90;;;;;;4975472;28;20031;-55
2024/03/30 02:49:04;;;;;;;21.80;15.80;;;9.50;99.90;;;;;;4975163;28;20030;-56
2024/03/30 02:51:30;;;;;;;25.33;16.05;;;9.50;99.90;;;;;;4957200;28;20027;-57
2024/03/30 02:53:55;;;;;;;21.52;14.35;;;9.50;99.90;;;;;;4958154;28;20371;-57
2024/03/30 02:56:21;;;;;;;22.27;14.35;;;9.50;99.90;;;;;;4958044;28;20042;-55
2024/03/30 02:58:47;;;;;;;19.83;15.05;;;9.50;99.90;;;;;;4975214;28;20031;-56
2024/03/30 03:01:13;;;;;;;20.40;14.32;;;9.40;99.90;;;;;;4975242;28;20058;-55
2024/03/30 03:03:38;;;;;;;23.65;14.52;;;9.40;99.90;;;;;;4975091;28;20474;-55
2024/03/30 03:06:04;;;;;;;23.45;14.43;;;9.40;99.90;;;;;;4957507;28;20038;-57
2024/03/30 03:08:29;;;;;;;19.70;14.18;;;9.40;99.90;;;;;;4974870;28;20027;-57
2024/03/30 03:10:55;;;;;;;17.40;13.85;;;9.40;99.90;;;;;;4974867;28;20088;-55
2024/03/30 03:13:20;;;;;;;22.70;15.93;;;9.30;99.90;;;;;;4975098;28;20038;-55
2024/03/30 03:15:46;;;;;;;22.67;14.65;;;9.20;99.90;;;;;;4975048;28;20110;-57
2024/03/30 03:18:12;;;;;;;19.95;13.68;;;9.20;99.90;;;;;;4974745;28;20031;-55
2024/03/30 03:20:37;;;;;;;22.48;14.48;;;9.20;99.90;;;;;;4974993;28;20106;-55
2024/03/30 03:23:03;;;;;;;18.85;13.75;;;9.20;99.90;;;;;;4957838;28;20066;-57
2024/03/30 03:25:29;;;;;;;22.52;14.75;;;9.10;99.90;;;;;;4957547;28;20039;-56
2024/03/30 03:27:54;;;;;;;21.85;14.35;;;9.10;99.90;;;;;;4957413;28;20121;-57
2024/03/30 03:30:20;;;;;;;21.00;14.02;;;9.10;99.90;;;;;;4974677;28;20035;-56
2024/03/30 03:32:45;;;;;;;22.02;14.85;;;9.10;99.90;;;;;;4957389;28;20442;-55
2024/03/30 03:35:11;;;;;;;21.98;14.25;;;9.10;99.90;;;;;;4974664;28;20033;-58
2024/03/30 03:37:37;;;;;;;21.35;15.00;;;9.10;99.90;;;;;;4974636;28;20057;-57
2024/03/30 03:40:02;;;;;;;20.88;14.80;;;9.10;99.90;;;;;;4957571;28;20769;-56
2024/03/30 03:42:28;;;;;;;17.95;13.93;;;9.10;99.90;;;;;;4957291;28;20035;-55
2024/03/30 03:44:53;;;;;;;19.58;13.63;;;9.10;99.90;;;;;;4957176;28;20027;-51
2024/03/30 03:47:19;;;;;;;22.85;14.13;;;9.10;99.90;;;;;;4974612;28;20081;-53
2024/03/30 03:49:44;;;;;;;22.73;13.75;;;9.00;99.90;;;;;;4974972;28;20035;-54
2024/03/30 03:52:10;;;;;;;23.35;14.25;;;9.10;99.90;;;;;;4957203;28;20026;-55
2024/03/30 03:54:36;;;;;;;19.50;14.25;;;9.10;99.90;;;;;;4974846;28;20027;-57
2024/03/30 03:57:02;;;;;;;24.33;14.00;;;9.10;99.90;;;;;;4974200;28;20031;-56
2024/03/30 03:59:27;;;;;;;22.55;15.00;;;9.10;99.90;;;;;;4974443;28;20019;-58
2024/03/30 04:01:53;;;;;;;18.75;13.80;;;9.00;99.90;;;;;;4956529;28;20548;-55
2024/03/30 04:04:19;;;;;;;22.25;14.40;;;8.90;99.90;;;;;;4974001;28;20027;-54
2024/03/30 04:06:44;;;;;;;18.63;13.50;;;8.90;99.90;;;;;;4956923;28;20178;-56
2024/03/30 04:09:10;;;;;;;16.48;13.07;;;8.90;99.90;;;;;;4974007;28;20031;-57
2024/03/30 04:11:36;;;;;;;18.08;13.55;;;8.90;99.90;;;;;;4956464;28;20015;-55
2024/03/30 04:14:01;;;;;;;24.45;13.82;;;8.90;99.90;;;;;;4974017;28;20367;-52
2024/03/30 04:16:27;;;;;;;20.15;12.50;;;8.90;99.90;;;;;;4974093;28;20037;-54
2024/03/30 04:18:52;;;;;;;19.90;12.00;;;8.90;99.90;;;;;;4973944;28;20027;-52
2024/03/30 04:21:18;;;;;;;16.33;12.63;;;9.00;99.90;;;;;;4974114;28;20050;-57
2024/03/30 04:23:44;;;;;;;18.58;12.40;;;9.00;99.90;;;;;;4973843;28;20105;-53
2024/03/30 04:26:11;;;;;;;17.00;12.07;;;9.00;99.90;;;;;;4956538;28;20446;-55
2024/03/30 04:28:37;;;;;;;20.80;12.70;;;9.00;99.90;;;;;;4956347;28;20058;-57
2024/03/30 04:31:04;;;;;;;21.33;14.40;;;9.00;99.90;;;;;;4956050;28;20521;-52
2024/03/30 04:33:31;;;;;;;18.13;12.15;;;9.00;99.90;;;;;;4973693;28;20117;-56
2024/03/30 04:35:58;;;;;;;19.83;11.63;;;9.00;99.90;;;;;;4973960;28;20074;-54
2024/03/30 04:38:24;;;;;;;16.35;11.38;;;9.00;99.90;;;;;;4973504;28;20027;-58
2024/03/30 04:41:12;;;;;;;21.15;12.77;;;9.00;99.90;;;;;;4956003;28;20490;-56
2024/03/30 04:43:37;;;;;;;15.27;11.45;;;9.00;99.90;;;;;;4956077;28;20031;-57
2024/03/30 04:46:04;;;;;;;21.15;12.73;;;9.10;99.90;;;;;;4973566;28;20033;-57
2024/03/30 04:48:33;;;;;;;20.73;12.63;;;9.00;99.90;;;;;;4973193;28;20103;-57
2024/03/30 04:51:04;;;;;;;15.90;11.38;;;9.00;99.90;;;;;;4973239;28;20026;-57
2024/03/30 04:53:32;;;;;;;16.58;11.50;;;9.00;99.90;;;;;;4973144;28;20405;-56
2024/03/30 04:56:02;;;;;;;14.18;11.07;;;9.00;99.90;;;;;;4973147;28;20371;-58
2024/03/30 04:58:30;;;;;;;15.98;12.23;;;9.00;99.90;;;;;;4972965;28;20038;-55
2024/03/30 05:01:09;;;;;;;16.52;11.40;;;9.00;99.90;;;;;;4955774;28;20026;-57
2024/03/30 05:03:35;;;;;;;16.55;9.98;;;9.00;99.90;;;;;;4955806;28;20042;-56
2024/03/30 05:06:02;;;;;;;18.95;10.02;;;9.00;99.90;;;;;;4973055;28;20026;-57
2024/03/30 05:08:28;;;;;;;19.90;11.85;;;8.90;99.90;;;;;;4972822;28;20094;-59
2024/03/30 05:10:53;;;;;;;16.23;9.52;;;8.90;99.90;;;;;;4973014;28;20077;-56
2024/03/30 05:13:20;;;;;;;15.52;11.60;;;9.00;99.90;;;;;;4972810;28;20031;-55
2024/03/30 05:15:46;;;;;;;19.42;10.88;;;8.90;99.90;;;;;;4973117;28;20030;-57
2024/03/30 05:18:13;;;;;;;16.67;10.40;;;8.80;99.90;;;;;;4973397;28;20049;-54
2024/03/30 05:20:53;;;;;;;19.20;11.10;;;8.80;99.90;;;;;;4973043;28;20031;-56
2024/03/30 05:23:20;;;;;;;15.52;10.77;;;8.90;99.90;;;;;;4972997;28;20026;-56
2024/03/30 05:25:47;;;;;;;27.90;11.48;;;8.90;99.90;;;;;;4973041;28;20406;-56
2024/03/30 05:28:14;;;;;;;17.10;11.27;;;8.80;99.90;;;;;;4972837;28;20023;-57
2024/03/30 05:30:39;;;;;;;14.70;10.95;;;8.90;99.90;;;;;;4955322;28;20054;-57
2024/03/30 05:33:05;;;;;;;13.40;9.98;;;9.00;99.90;;;;;;4972798;28;20067;-58
2024/03/30 05:35:31;;;;;;;19.30;11.98;;;9.00;99.90;;;;;;4973075;28;20027;-57
2024/03/30 05:37:57;;;;;;;24.42;11.13;;;9.00;99.90;;;;;;4972579;28;20029;-57
2024/03/30 05:40:23;;;;;;;21.13;10.57;;;9.10;99.90;;;;;;4972789;28;20027;-59
2024/03/30 05:42:50;;;;;;;17.25;10.05;;;8.90;99.90;;;;;;4972664;28;20058;-57
2024/03/30 05:45:15;;;;;;;17.80;10.90;;;9.00;99.90;;;;;;4972577;28;20030;-56
2024/03/30 05:47:41;;;;;;;16.35;10.32;;;9.00;99.90;;;;;;4972468;28;20390;-54
2024/03/30 05:50:06;;;;;;;18.48;10.27;;;9.00;99.90;;;;;;4972932;28;20089;-57
2024/03/30 05:52:32;;;;;;;18.05;10.73;;;9.10;99.90;;;;;;4972706;28;20394;-58
2024/03/30 05:54:57;;;;;;;15.98;10.80;;;9.20;99.90;;;;;;4972669;28;20035;-53
2024/03/30 05:57:23;;;;;;;16.70;9.82;;;9.20;99.90;;;;;;4972514;28;20048;-55
2024/03/30 05:59:48;;;;;;;16.92;10.65;;;9.30;99.90;;;;;;4972443;28;20046;-56
2024/03/30 06:02:14;;;;;;;15.88;9.43;;;9.40;99.90;;;;;;4955373;28;20502;-55
2024/03/30 06:04:39;;;;;;;18.02;9.38;;;9.40;99.90;;;;;;4972641;28;20027;-57
2024/03/30 06:07:08;;;;;;;16.27;9.63;;;9.40;99.90;;;;;;4972318;28;20065;-55
2024/03/30 06:09:35;;;;;;;17.92;10.82;;;9.50;99.90;;;;;;4972546;28;20078;-57
2024/03/30 06:12:00;;;;;;;13.20;8.82;;;9.50;99.90;;;;;;4954812;28;20494;-55
2024/03/30 06:14:26;;;;;;;18.60;9.15;;;9.60;99.90;;;;;;4972469;28;20034;-56
2024/03/30 06:16:51;;;;;;;14.30;8.30;;;9.60;99.90;;;;;;4972343;28;20027;-54
2024/03/30 06:19:17;;;;;;;35.88;10.35;;;9.50;99.90;;;;;;4955039;28;20502;-54
2024/03/30 06:21:42;;;;;;;21.75;9.77;;;9.60;99.90;;;;;;4954858;28;20057;-57
2024/03/30 06:24:08;;;;;;;13.65;8.32;;;9.60;99.90;;;;;;4972392;28;20045;-56
2024/03/30 06:26:33;;;;;;;13.85;8.48;;;9.60;99.90;;;;;;4973989;28;20034;-52
2024/03/30 06:28:59;;;;;;;15.95;7.97;;;9.40;99.90;;;;;;4958296;28;20031;-58
2024/03/30 06:31:24;;;;;;;12.93;8.02;;;9.50;99.90;;;;;;4958403;28;20050;-52
2024/03/30 06:33:51;;;;;;;18.05;8.05;;;9.50;99.90;;;;;;4958387;28;20023;-53
2024/03/30 06:36:17;;;;;;;22.02;8.18;;;9.50;99.90;;;;;;4976198;28;20026;-53
2024/03/30 06:38:42;;;;;;;17.23;8.65;;;9.50;99.90;;;;;;4976121;28;20045;-51
2024/03/30 06:43:52;;;;;;;24.50;7.97;;;9.60;99.90;;;;;;4994977;28;20124;-55
2024/03/30 06:46:17;;;;;;;14.20;7.88;;;9.60;99.90;;;;;;4977244;28;20513;-52
2024/03/30 06:48:43;;;;;;;14.52;7.72;;;9.60;99.90;;;;;;4977102;28;20029;-54
2024/03/30 06:51:08;;;;;;;28.48;8.23;;;9.50;99.90;;;;;;4994548;28;20027;-55
2024/03/30 06:53:34;;;;;;;16.02;7.03;;;9.50;99.90;;;;;;4977125;28;20042;-57
2024/03/30 06:55:59;;;;;;;13.57;7.20;;;9.50;99.90;;;;;;4994677;28;20061;-56
2024/03/30 06:58:25;;;;;;;21.33;8.23;;;9.60;99.90;;;;;;4994699;28;20045;-54
2024/03/30 07:00:50;;;;;;;14.63;7.70;;;9.60;99.90;;;;;;4977063;28;20042;-56
2024/03/30 07:03:17;;;;;;;25.20;8.32;;;9.70;99.90;;;;;;4976998;28;20022;-56
2024/03/30 07:05:42;;;;;;;21.60;6.90;;;9.70;99.90;;;;;;4994521;28;20485;-54
2024/03/30 07:08:08;;;;;;;29.05;7.72;;;9.80;99.90;;;;;;4976660;28;20018;-53
2024/03/30 07:10:34;;;;;;;22.90;7.93;;;9.80;99.90;;;;;;4994086;28;20019;-50
2024/03/30 07:12:59;;;;;;;13.93;6.60;;;9.90;99.90;;;;;;4976849;28;20030;-57
2024/03/30 07:15:25;;;;;;;16.38;7.10;;;9.90;99.90;;;;;;4976773;28;20052;-55
2024/03/30 07:17:51;;;;;;;16.30;7.97;;;9.90;99.90;;;;;;4994178;28;20113;-56
2024/03/30 07:20:16;;;;;;;16.15;7.07;;;10.00;99.90;;;;;;4994036;28;20041;-54
2024/03/30 07:22:42;;;;;;;24.08;7.90;;;10.10;99.90;;;;;;4994085;28;20034;-55
2024/03/30 07:25:08;;;;;;;24.73;6.93;;;10.10;99.90;;;;;;4994329;28;20120;-53
2024/03/30 07:27:34;;;;;;;31.92;8.13;;;10.10;99.90;;;;;;4976637;28;20474;-56
2024/03/30 07:30:00;;;;;;;20.38;7.93;;;10.10;99.90;;;;;;4976548;28;20030;-56
2024/03/30 07:32:25;;;;;;;25.67;8.25;;;10.80;99.90;;;;;;4976411;28;20402;-56
2024/03/30 07:34:51;;;;;;;13.23;7.85;;;10.20;99.90;;;;;;4993724;28;20030;-53
2024/03/30 07:37:17;;;;;;;29.88;7.15;;;10.20;99.90;;;;;;4975998;28;20026;-55
2024/03/30 07:39:43;;;;;;;16.52;8.13;;;10.20;99.90;;;;;;4993746;28;20028;-56
2024/03/30 07:42:09;;;;;;;17.95;6.75;;;10.20;99.90;;;;;;4976179;28;20034;-53
2024/03/30 07:44:38;;;;;;;19.65;7.65;;;10.20;99.90;;;;;;4976198;28;20038;-51
2024/03/30 07:47:05;;;;;;;21.05;6.53;;;10.00;99.90;;;;;;4976006;28;20033;-54
2024/03/30 07:49:31;;;;;;;16.10;7.00;;;10.30;99.90;;;;;;4993467;28;20404;-52
2024/03/30 07:51:57;;;;;;;21.10;6.28;;;10.30;99.90;;;;;;4993907;28;20034;-55
2024/03/30 07:54:23;;;;;;;20.15;6.30;;;10.40;99.90;;;;;;4993867;28;20462;-50
2024/03/30 07:56:56;;;;;;;21.67;6.65;;;10.40;99.90;;;;;;4993772;28;20038;-54
2024/03/30 07:59:22;;;;;;;17.40;6.53;;;10.40;99.90;;;;;;4993845;28;20026;-55
2024/03/30 08:01:48;;;;;;;22.98;7.07;;;10.40;99.90;;;;;;4993226;28;20026;-54
2024/03/30 08:04:18;;;;;;;19.77;6.05;;;10.40;99.90;;;;;;4975869;28;20045;-54
2024/03/30 08:06:45;;;;;;;19.17;6.82;;;10.50;99.90;;;;;;4993170;28;20019;-52
2024/03/30 08:09:11;;;;;;;25.15;7.22;;;10.50;99.90;;;;;;4993011;28;20029;-55
2024/03/30 08:11:38;;;;;;;17.65;6.78;;;10.50;99.90;;;;;;4992862;28;20022;-53
2024/03/30 08:14:04;;;;;;;22.00;7.28;;;10.50;99.90;;;;;;4992947;28;20022;-52
2024/03/30 08:16:30;;;;;;;32.28;7.70;;;10.60;99.90;;;;;;4993177;28;20029;-53
2024/03/30 08:18:57;;;;;;;19.13;7.22;;;10.50;99.90;;;;;;4975064;28;20113;-53
2024/03/30 08:21:23;;;;;;;17.23;7.00;;;10.60;99.90;;;;;;4992900;28;20030;-52
2024/03/30 08:23:49;;;;;;;20.50;6.72;;;10.60;99.90;;;;;;4992981;28;20374;-55
2024/03/30 08:26:15;;;;;;;29.70;8.07;;;10.60;99.90;;;;;;4992846;28;20030;-56
2024/03/30 08:28:41;;;;;;;23.30;7.05;;;10.70;99.90;;;;;;4992535;28;20038;-51
2024/03/30 08:31:06;;;;;;;29.25;7.10;;;10.70;99.90;;;;;;4992827;28;20023;-54
2024/03/30 08:33:32;;;;;;;20.83;6.50;;;10.80;99.90;;;;;;4975408;28;20033;-52
2024/03/30 08:35:57;;;;;;;26.27;8.27;;;10.80;99.90;;;;;;4975253;28;20030;-56
2024/03/30 08:38:23;;;;;;;23.27;7.30;;;10.80;99.90;;;;;;4992418;28;20105;-55
2024/03/30 08:40:49;;;;;;;17.13;6.93;;;10.80;99.90;;;;;;4993268;28;20362;-54
2024/03/30 08:43:18;;;;;;;31.25;6.50;;;10.90;99.90;;;;;;4974973;28;20034;-55
2024/03/30 08:45:43;;;;;;;23.60;6.43;;;10.90;99.90;;;;;;4975134;28;20061;-53
2024/03/30 08:48:13;;;;;;;20.98;6.40;;;10.80;99.90;;;;;;4992112;28;20518;-55
2024/03/30 08:50:39;;;;;;;19.55;5.90;;;10.90;99.90;;;;;;4974940;28;20062;-56
2024/03/30 08:53:09;;;;;;;22.25;6.95;;;11.00;99.90;;;;;;4992535;28;20062;-56
2024/03/30 08:55:38;;;;;;;30.20;8.40;;;11.00;99.90;;;;;;4992865;28;20101;-52
2024/03/30 08:58:06;;;;;;;16.88;6.13;;;11.00;99.90;;;;;;4992199;28;20030;-54
2024/03/30 09:00:32;;;;;;;29.52;5.80;;;11.00;99.90;;;;;;4992655;28;20023;-55
2024/03/30 09:02:57;;;;;;;24.27;6.15;;;11.00;99.90;;;;;;4974768;28;20030;-52
2024/03/30 09:05:23;;;;;;;21.00;7.28;;;11.10;99.90;;;;;;4992279;28;20101;-54
2024/03/30 09:07:49;;;;;;;25.40;6.60;;;11.00;99.90;;;;;;4974757;28;20034;-56
2024/03/30 09:10:15;;;;;;;22.77;6.35;;;11.10;99.90;;;;;;4991960;28;20508;-56
2024/03/30 09:12:41;;;;;;;21.90;5.50;;;11.10;99.90;;;;;;4992148;28;20027;-54
2024/03/30 09:15:07;;;;;;;23.48;7.63;;;11.20;99.90;;;;;;4992313;28;20445;-57
2024/03/30 09:17:32;;;;;;;26.38;6.50;;;11.20;99.90;;;;;;5003078;28;20049;-56
2024/03/30 09:20:00;;;;;;;32.05;6.03;;;11.20;99.90;;;;;;4992573;28;20042;-61
2024/03/30 09:22:26;;;;;;;18.55;5.43;;;11.20;99.90;;;;;;4983799;28;20485;-55
2024/03/30 09:24:54;;;;;;;25.20;5.75;;;11.30;99.90;;;;;;4996416;28;20030;-55
2024/03/30 09:27:19;;;;;;;24.25;5.53;;;11.30;99.90;;;;;;5007915;28;20106;-49
2024/03/30 09:29:45;;;;;;;22.77;5.60;;;11.40;99.90;;;;;;4992190;28;20030;-54
2024/03/30 09:32:11;;;;;;;14.55;6.07;;;11.40;99.90;;;;;;4991778;28;20105;-53
2024/03/30 09:34:36;;;;;;;23.08;5.38;;;11.50;99.90;;;;;;5002825;28;20033;-54
2024/03/30 09:37:07;;;;;;;23.83;6.10;;;11.60;99.90;;;;;;4991762;28;20030;-55
2024/03/30 09:39:36;;;;;;;17.45;5.82;;;11.60;99.90;;;;;;5002294;28;20030;-52
2024/03/30 09:42:06;;;;;;;15.60;4.97;;;11.60;99.90;;;;;;5011399;28;20449;-55
2024/03/30 09:44:36;;;;;;;24.13;5.13;;;11.60;99.90;;;;;;5011835;28;20030;-55
2024/03/30 09:47:02;;;;;;;26.58;6.28;;;11.70;99.90;;;;;;4993408;28;20401;-51
2024/03/30 09:49:33;;;;;;;16.23;5.53;;;11.80;99.90;;;;;;5011427;28;20104;-58
2024/03/30 09:52:04;;;;;;;21.73;6.22;;;11.90;99.90;;;;;;4998864;28;20026;-55
2024/03/30 09:54:30;;;;;;;19.83;4.20;;;12.00;99.90;;;;;;4992048;28;20026;-53
2024/03/30 09:56:56;;;;;;;26.17;5.55;;;12.10;99.90;;;;;;4991767;28;20038;-53
2024/03/30 09:59:22;;;;;;;20.20;4.63;;;12.20;99.90;;;;;;4991682;28;20026;-56
2024/03/30 10:01:47;;;;;;;22.45;6.30;;;12.40;99.90;;;;;;4994275;28;20063;-54
2024/03/30 10:04:13;;;;;;;17.17;4.85;;;12.50;99.90;;;;;;4979134;28;20390;-52
2024/03/30 10:06:57;;;;;;;21.70;4.75;;;12.60;99.90;;;;;;4996468;28;20531;-54
2024/03/30 10:09:26;;;;;;;25.45;5.90;;;12.70;99.90;;;;;;4995159;28;20031;-58
2024/03/30 10:11:59;;;;;;;29.30;5.75;;;12.80;99.90;;;;;;4996337;28;20023;-59
2024/03/30 10:14:36;;;;;;;24.90;5.05;;;12.80;99.90;;;;;;4995759;28;20033;-57
2024/03/30 10:17:02;;;;;;;22.50;6.22;;;12.80;99.90;;;;;;4995149;28;20041;-59
2024/03/30 10:19:32;;;;;;;18.63;6.50;;;12.90;99.90;;;;;;4979185;28;20030;-60
2024/03/30 10:21:58;;;;;;;19.65;4.45;;;13.00;99.90;;;;;;4995064;28;20066;-59
2024/03/30 10:24:25;;;;;;;23.48;5.65;;;13.20;99.90;;;;;;5005701;28;20113;-59
2024/03/30 10:26:50;;;;;;;26.88;6.28;;;13.50;99.90;;;;;;4995124;28;20030;-59
2024/03/30 10:29:16;;;;;;;21.70;5.97;;;13.80;99.90;;;;;;5004120;28;20022;-59
2024/03/30 10:31:42;;;;;;;29.63;5.80;;;14.20;99.90;;;;;;4997065;28;20172;-61
2024/03/30 10:34:07;;;;;;;24.95;6.25;;;14.40;99.90;;;;;;4997108;28;20030;-59
2024/03/30 10:36:33;;;;;;;19.23;4.97;;;14.60;99.90;;;;;;5014740;28;20025;-56
2024/03/30 10:39:00;;;;;;;33.40;5.30;;;14.60;99.90;;;;;;5014406;28;20172;-59
2024/03/30 10:41:28;;;;;;;27.15;5.38;;;14.70;99.90;;;;;;5004982;28;20037;-60
2024/03/30 10:43:55;;;;;;;21.58;4.45;;;14.60;99.90;;;;;;4995019;28;20169;-61
2024/03/30 10:46:20;;;;;;;25.38;6.28;;;14.60;99.90;;;;;;4992751;28;20440;-61
2024/03/30 10:48:46;;;;;;;23.60;6.10;;;14.60;99.90;;;;;;4997981;28;20026;-61
2024/03/30 10:51:12;;;;;;;23.65;5.82;;;14.50;99.90;;;;;;4966908;28;20108;-62
2024/03/30 10:53:38;;;;;;;23.98;5.63;;;14.50;99.90;;;;;;4997989;28;20034;-63
2024/03/30 10:56:04;;;;;;;23.85;4.82;;;14.50;99.90;;;;;;5013296;28;20437;-59
2024/03/30 10:58:31;;;;;;;22.70;4.32;;;14.30;99.90;;;;;;5006758;28;20056;-57
2024/03/30 11:00:58;;;;;;;32.92;8.55;;;14.30;99.90;;;;;;4992403;28;20116;-61
2024/03/30 11:03:25;;;;;;;29.88;9.70;;;14.20;99.90;;;;;;4993652;28;20632;-56
2024/03/30 11:05:52;;;;;;;26.05;6.00;;;14.20;99.90;;;;;;4992485;28;20030;-53
2024/03/30 11:08:19;;;;;;;23.38;4.32;;;14.20;99.90;;;;;;4992714;28;20394;-52
2024/03/30 11:10:44;;;;;;;29.00;5.60;;;14.10;99.90;;;;;;5000109;28;20036;-54
2024/03/30 11:13:10;;;;;;;27.83;6.35;;;14.10;99.90;;;;;;4985122;28;20108;-57
2024/03/30 11:15:42;;;;;;;29.33;6.45;;;14.10;99.90;;;;;;5004452;28;20459;-56
2024/03/30 11:18:17;;;;;;;23.88;5.35;;;14.00;99.90;;;;;;4992623;28;20034;-58
2024/03/30 11:20:49;;;;;;;26.17;5.65;;;14.00;99.90;;;;;;4980349;28;20031;-54
2024/03/30 11:23:27;;;;;;;29.00;7.20;;;13.90;99.90;;;;;;4994413;28;20038;-58
2024/03/30 11:26:04;;;;;;;27.17;5.47;;;13.80;99.90;;;;;;4982078;28;20037;-51
2024/03/30 11:28:36;;;;;;;28.95;5.57;;;13.80;99.90;;;;;;4975237;28;20022;-57
2024/03/30 11:31:27;;;;;;;26.50;5.20;;;13.70;99.90;;;;;;4999980;28;20029;-58
2024/03/30 11:34:09;;;;;;;26.80;7.15;;;13.70;99.90;;;;;;4963486;28;20393;-55
2024/03/30 11:36:44;;;;;;;42.83;6.43;;;13.70;99.90;;;;;;4984725;28;20041;-60
2024/03/30 11:39:24;;;;;;;25.70;5.45;;;13.70;99.90;;;;;;5004052;28;20030;-59
2024/03/30 11:41:52;;;;;;;24.63;6.15;;;13.70;99.90;;;;;;4992461;28;20085;-59
2024/03/30 11:44:21;;;;;;;31.27;5.53;;;13.70;99.90;;;;;;4983033;28;20022;-59
2024/03/30 11:46:49;;;;;;;31.30;6.57;;;13.80;99.90;;;;;;5005410;28;20025;-63
2024/03/30 11:49:17;;;;;;;27.00;4.85;;;13.80;99.90;;;;;;4978528;28;20027;-61
2024/03/30 11:51:43;;;;;;;23.60;6.00;;;13.80;99.90;;;;;;4985152;28;20069;-53
2024/03/30 11:54:19;;;;;;;31.60;6.82;;;13.80;99.90;;;;;;5008751;28;20061;-50
2024/03/30 11:57:10;;;;;;;26.65;7.65;;;13.80;99.90;;;;;;5001122;28;20557;-52
2024/03/30 11:59:38;;;;;;;30.60;6.97;;;13.80;99.90;;;;;;4974273;28;20379;-52
2024/03/30 12:02:09;;;;;;;29.98;5.80;;;13.90;99.90;;;;;;4992894;28;20544;-55
2024/03/30 12:04:42;;;;;;;30.40;6.03;;;14.00;99.90;;;;;;5002428;28;20057;-50
2024/03/30 12:07:09;;;;;;;26.13;5.18;;;14.20;99.90;;;;;;4987789;28;20029;-55
2024/03/30 12:09:35;;;;;;;24.08;5.50;;;14.20;99.90;;;;;;4999813;28;20032;-53
2024/03/30 12:12:17;;;;;;;24.35;5.68;;;14.00;99.90;;;;;;4987288;28;20142;-53
2024/03/30 12:14:46;;;;;;;26.70;5.75;;;14.00;99.90;;;;;;4992070;28;20033;-51
2024/03/30 12:17:12;;;;;;;29.52;5.90;;;13.90;99.90;;;;;;4973461;28;20614;-51
2024/03/30 12:19:39;;;;;;;27.48;6.05;;;13.90;99.90;;;;;;4991058;28;20043;-55
2024/03/30 12:22:05;;;;;;;33.10;6.07;;;13.90;99.90;;;;;;4990763;28;20073;-54
2024/03/30 12:24:33;;;;;;;14.05;5.13;;;13.90;99.90;;;;;;4990179;28;20088;-48
2024/03/30 12:26:58;;;;;;;26.35;5.05;;;13.80;99.90;;;;;;4973003;28;20030;-53
2024/03/30 12:29:24;;;;;;;22.23;5.35;;;13.80;99.90;;;;;;4991234;28;20030;-50
2024/03/30 12:31:50;;;;;;;27.05;5.70;;;13.80;99.90;;;;;;4993094;28;20030;-54
2024/03/30 12:34:16;;;;;;;39.47;5.80;;;13.80;99.90;;;;;;4975464;28;20023;-52
2024/03/30 12:36:42;;;;;;;32.83;6.65;;;13.80;99.90;;;;;;4992772;28;20117;-56
2024/03/30 12:39:11;;;;;;;33.08;6.05;;;13.70;99.90;;;;;;4992464;28;20034;-51